createdAt,value
2023-01-19T00:02:17.349Z,92.82
2023-01-19T00:04:47.531Z,92.89
2023-01-19T00:07:18.673Z,93.00
2023-01-19T00:09:50.374Z,93.07
2023-01-19T00:12:22.005Z,92.99
2023-01-19T00:14:52.181Z,93.00
2023-01-19T00:17:21.947Z,93.19
2023-01-19T00:19:52.789Z,93.29
2023-01-19T00:22:23.120Z,93.42
2023-01-19T00:24:54.075Z,93.49
2023-01-19T00:27:25.512Z,93.64
2023-01-19T00:29:56.771Z,93.65
2023-01-19T00:32:27.430Z,93.54
2023-01-19T00:35:00.704Z,93.67
2023-01-19T00:37:30.845Z,93.74
2023-01-19T00:40:00.630Z,93.92
2023-01-19T00:42:45.529Z,93.98
2023-01-19T00:45:21.261Z,94.14
2023-01-19T00:47:58.213Z,94.27
2023-01-19T00:50:30.826Z,94.40
2023-01-19T00:53:05.748Z,94.57
2023-01-19T00:55:36.687Z,94.26
2023-01-19T00:58:08.706Z,94.41
2023-01-19T01:00:39.986Z,94.67
2023-01-19T01:03:10.621Z,94.78
2023-01-19T01:05:43.635Z,94.73
2023-01-19T01:08:14.577Z,94.71
2023-01-19T01:10:44.776Z,94.87
2023-01-19T01:13:20.790Z,94.95
2023-01-19T01:15:54.212Z,94.97
2023-01-19T01:18:25.783Z,94.91
2023-01-19T01:21:06.381Z,94.92
2023-01-19T01:23:37.761Z,95.04
2023-01-19T01:29:06.899Z,95.05
2023-01-19T01:31:38.502Z,94.98
2023-01-19T01:34:08.731Z,94.89
2023-01-19T01:36:39.040Z,94.72
2023-01-19T01:39:09.394Z,94.69
2023-01-19T01:41:39.573Z,94.53
2023-01-19T01:44:56.546Z,94.02
2023-01-19T01:47:48.683Z,93.99
2023-01-19T01:50:23.786Z,93.95
2023-01-19T01:53:08.472Z,94.06
2023-01-19T01:55:45.124Z,93.99
2023-01-19T01:58:17.796Z,94.06
2023-01-19T02:01:06.467Z,93.87
2023-01-19T02:03:39.095Z,93.97
2023-01-19T02:06:11.576Z,94.20
2023-01-19T02:09:08.769Z,94.25
2023-01-19T02:11:57.888Z,94.38
2023-01-19T02:14:29.668Z,94.33
2023-01-19T02:17:01.637Z,94.43
2023-01-19T02:19:44.246Z,94.45
2023-01-19T02:22:26.959Z,94.60
2023-01-19T02:24:58.050Z,94.52
2023-01-19T02:27:29.564Z,94.53
2023-01-19T02:30:01.429Z,94.59
2023-01-19T02:32:31.904Z,94.67
2023-01-19T02:35:03.718Z,94.94
2023-01-19T02:37:39.282Z,95.23
2023-01-19T02:40:21.271Z,95.17
2023-01-19T02:42:53.815Z,95.40
2023-01-19T02:45:25.070Z,95.42
2023-01-19T02:47:55.993Z,95.52
2023-01-19T02:50:38.824Z,95.57
2023-01-19T02:53:48.867Z,95.48
2023-01-19T02:56:29.624Z,95.75
2023-01-19T02:59:05.129Z,95.72
2023-01-19T03:01:59.429Z,95.76
2023-01-19T03:04:41.376Z,95.69
2023-01-19T03:07:31.220Z,95.48
2023-01-19T03:10:38.766Z,95.55
2023-01-19T03:13:09.315Z,95.81
2023-01-19T03:15:59.705Z,95.91
2023-01-19T03:18:33.617Z,95.79
2023-01-19T03:21:07.630Z,95.63
2023-01-19T03:23:41.368Z,95.55
2023-01-19T03:26:16.574Z,95.59
2023-01-19T03:28:49.666Z,95.58
2023-01-19T03:31:24.328Z,95.56
2023-01-19T03:34:01.844Z,95.75
2023-01-19T03:36:38.539Z,95.87
2023-01-19T03:39:12.769Z,95.65
2023-01-19T03:41:46.601Z,95.62
2023-01-19T03:44:19.029Z,95.53
2023-01-19T03:46:51.569Z,95.56
2023-01-19T03:49:22.598Z,95.58
2023-01-19T03:51:52.949Z,95.62
2023-01-19T03:54:24.199Z,95.66
2023-01-19T03:56:54.233Z,95.68
2023-01-19T03:59:25.350Z,95.72
2023-01-19T04:01:56.047Z,95.68
2023-01-19T04:04:26.666Z,95.72
2023-01-19T04:06:56.427Z,95.74
2023-01-19T04:09:28.287Z,95.86
2023-01-19T04:12:04.444Z,95.60
2023-01-19T04:14:34.554Z,95.60
2023-01-19T04:17:04.746Z,95.49
2023-01-19T04:19:35.061Z,95.48
2023-01-19T04:22:05.964Z,95.36
2023-01-19T04:27:33.714Z,95.39
2023-01-19T04:30:05.116Z,95.49
2023-01-19T04:32:35.896Z,95.44
2023-01-19T04:35:06.741Z,95.29
2023-01-19T04:37:36.551Z,95.42
2023-01-19T04:40:07.667Z,95.49
2023-01-19T04:42:38.691Z,95.42
2023-01-19T04:45:10.661Z,95.57
2023-01-19T04:47:41.217Z,95.63
2023-01-19T04:50:12.384Z,95.57
2023-01-19T04:52:42.884Z,95.46
2023-01-19T04:55:14.016Z,95.52
2023-01-19T04:57:45.450Z,95.41
2023-01-19T05:00:16.472Z,95.33
2023-01-19T05:02:47.339Z,95.33
2023-01-19T05:05:18.334Z,95.22
2023-01-19T05:07:48.462Z,95.01
2023-01-19T05:10:18.606Z,94.98
2023-01-19T05:12:49.188Z,95.08
2023-01-19T05:15:20.707Z,95.10
2023-01-19T05:17:50.843Z,95.43
2023-01-19T05:20:21.711Z,95.38
2023-01-19T05:22:52.998Z,94.97
2023-01-19T05:25:24.949Z,94.89
2023-01-19T05:27:55.305Z,94.84
2023-01-19T05:30:25.419Z,94.98
2023-01-19T05:32:55.720Z,94.95
2023-01-19T05:35:35.364Z,94.91
2023-01-19T05:38:06.701Z,95.04
2023-01-19T05:40:36.645Z,94.85
2023-01-19T05:43:07.092Z,94.83
2023-01-19T05:45:36.791Z,95.12
2023-01-19T05:48:09.361Z,94.92
2023-01-19T05:50:39.869Z,94.93
2023-01-19T05:53:11.271Z,94.89
2023-01-19T05:55:41.415Z,94.70
2023-01-19T05:58:11.280Z,94.66
2023-01-19T06:00:42.236Z,94.73
2023-01-19T06:03:13.028Z,94.56
2023-01-19T06:05:44.258Z,94.86
2023-01-19T06:08:14.411Z,95.00
2023-01-19T06:10:45.247Z,95.30
2023-01-19T06:13:15.596Z,95.42
2023-01-19T06:15:47.397Z,95.55
2023-01-19T06:18:17.865Z,95.59
2023-01-19T06:20:48.038Z,95.43
2023-01-19T06:23:18.082Z,95.54
2023-01-19T06:25:48.785Z,95.56
2023-01-19T06:28:19.762Z,95.84
2023-01-19T06:30:59.546Z,95.89
2023-01-19T06:33:30.158Z,96.11
2023-01-19T06:36:00.902Z,96.17
2023-01-19T06:38:31.446Z,96.27
2023-01-19T06:41:07.038Z,96.35
2023-01-19T06:43:37.534Z,96.53
2023-01-19T06:46:07.570Z,96.74
2023-01-19T06:48:38.763Z,96.86
2023-01-19T06:51:10.230Z,96.88
2023-01-19T06:53:40.343Z,96.76
2023-01-19T06:56:11.087Z,96.87
2023-01-19T06:58:43.762Z,96.86
2023-01-19T07:01:14.136Z,96.85
2023-01-19T07:03:45.526Z,96.66
2023-01-19T07:06:17.411Z,96.62
2023-01-19T07:08:47.544Z,96.60
2023-01-19T07:11:24.817Z,96.75
2023-01-19T07:14:01.140Z,96.86
2023-01-19T07:16:30.892Z,97.04
2023-01-19T07:19:01.422Z,97.11
2023-01-19T07:21:31.863Z,97.23
2023-01-19T07:24:02.146Z,97.43
2023-01-19T07:26:32.557Z,97.39
2023-01-19T07:29:03.818Z,97.84
2023-01-19T07:31:34.550Z,97.90
2023-01-19T07:34:04.870Z,97.97
2023-01-19T07:36:35.079Z,97.95
2023-01-19T07:39:04.936Z,98.14
2023-01-19T07:41:36.095Z,98.16
2023-01-19T07:44:10.150Z,98.24
2023-01-19T07:46:41.195Z,98.16
2023-01-19T07:49:11.764Z,98.12
2023-01-19T07:51:41.675Z,97.90
2023-01-19T07:54:13.296Z,97.94
2023-01-19T07:56:45.308Z,97.92
2023-01-19T07:59:15.784Z,98.13
2023-01-19T08:01:45.751Z,98.13
2023-01-19T08:04:15.939Z,98.16
2023-01-19T08:06:47.075Z,98.26
2023-01-19T08:09:17.520Z,98.33
2023-01-19T08:11:47.349Z,98.12
2023-01-19T08:14:17.724Z,98.18
2023-01-19T08:16:48.459Z,98.21
2023-01-19T08:19:20.460Z,98.30
2023-01-19T08:21:51.565Z,98.38
2023-01-19T08:24:23.929Z,98.26
2023-01-19T08:27:01.567Z,98.07
2023-01-19T08:29:33.015Z,97.98
2023-01-19T08:32:04.377Z,97.74
2023-01-19T08:34:36.452Z,97.57
2023-01-19T08:37:06.454Z,97.49
2023-01-19T08:39:36.258Z,97.40
2023-01-19T08:42:06.820Z,97.40
2023-01-19T08:44:43.757Z,97.20
2023-01-19T08:47:19.897Z,97.16
2023-01-19T08:49:49.650Z,97.09
2023-01-19T08:52:19.922Z,97.21
2023-01-19T08:54:50.504Z,97.01
2023-01-19T08:57:20.821Z,96.91
2023-01-19T08:59:50.953Z,96.98
2023-01-19T09:02:20.846Z,96.81
2023-01-19T09:04:53.410Z,96.83
2023-01-19T09:07:23.875Z,96.77
2023-01-19T09:09:54.361Z,96.65
2023-01-19T09:12:24.682Z,96.55
2023-01-19T09:14:54.396Z,96.39
2023-01-19T09:17:24.929Z,96.39
2023-01-19T09:19:55.595Z,95.91
2023-01-19T09:22:25.522Z,95.83
2023-01-19T09:24:55.882Z,95.89
2023-01-19T09:27:27.490Z,95.94
2023-01-19T09:29:58.732Z,95.66
2023-01-19T09:32:29.245Z,95.78
2023-01-19T09:34:59.103Z,95.50
2023-01-19T09:37:29.618Z,95.40
2023-01-19T09:40:01.043Z,95.20
2023-01-19T09:42:37.687Z,94.79
2023-01-19T09:45:15.574Z,94.46
2023-01-19T09:47:50.082Z,93.94
2023-01-19T09:50:33.786Z,93.23
2023-01-19T09:53:20.302Z,93.04
2023-01-19T09:55:51.541Z,92.66
2023-01-19T09:58:22.447Z,92.18
2023-01-19T10:00:59.568Z,92.26
2023-01-19T10:03:31.684Z,91.82
2023-01-19T10:06:06.091Z,91.25
2023-01-19T10:09:14.031Z,90.08
2023-01-19T10:11:53.692Z,88.69
2023-01-19T10:14:44.408Z,88.43
2023-01-19T10:17:35.936Z,88.54
2023-01-19T10:20:10.456Z,88.76
2023-01-19T10:22:44.544Z,89.44
2023-01-19T10:25:24.905Z,89.81
2023-01-19T10:27:55.049Z,90.16
2023-01-19T10:30:30.164Z,90.20
2023-01-19T10:33:02.418Z,90.15
2023-01-19T10:35:33.246Z,89.96
2023-01-19T10:38:05.432Z,90.29
2023-01-19T10:40:36.559Z,90.40
2023-01-19T10:43:46.196Z,90.10
2023-01-19T10:46:45.482Z,87.91
2023-01-19T10:49:31.650Z,84.29
2023-01-19T10:52:03.727Z,80.58
2023-01-19T10:54:37.524Z,80.05
2023-01-19T10:57:12.065Z,80.67
2023-01-19T10:59:52.001Z,79.53
2023-01-19T11:02:30.257Z,79.71
2023-01-19T11:05:03.485Z,81.62
2023-01-19T11:07:35.474Z,80.29
2023-01-19T11:10:18.505Z,83.44
2023-01-19T11:13:13.959Z,84.68
2023-01-19T11:15:50.932Z,85.00
2023-01-19T11:18:37.698Z,84.70
2023-01-19T11:21:19.002Z,81.39
2023-01-19T11:23:56.503Z,78.01
2023-01-19T11:26:32.996Z,80.23
2023-01-19T11:29:06.467Z,81.64
2023-01-19T11:31:37.317Z,82.13
2023-01-19T11:34:35.070Z,83.30
2023-01-19T11:37:22.175Z,82.22
2023-01-19T11:39:59.365Z,80.65
2023-01-19T11:42:34.470Z,77.13
2023-01-19T11:45:08.180Z,78.10
2023-01-19T11:47:48.278Z,76.40
2023-01-19T11:50:26.100Z,74.13
2023-01-19T11:53:08.200Z,71.51
2023-01-19T11:56:08.263Z,73.62
2023-01-19T11:58:45.922Z,73.64
2023-01-19T12:01:36.331Z,75.18
2023-01-19T12:04:15.490Z,71.72
2023-01-19T12:06:56.667Z,69.01
2023-01-19T12:09:29.172Z,68.32
2023-01-19T12:12:05.297Z,66.06
2023-01-19T12:15:09.793Z,68.11
2023-01-19T12:17:55.726Z,66.73
2023-01-19T12:20:40.280Z,65.17
2023-01-19T12:23:16.473Z,66.23
2023-01-19T12:25:55.325Z,65.95
2023-01-19T12:28:34.190Z,66.31
2023-01-19T12:31:06.169Z,67.16
2023-01-19T12:33:42.487Z,68.46
2023-01-19T12:36:36.147Z,68.78
2023-01-19T12:39:16.138Z,67.71
2023-01-19T12:41:49.536Z,66.56
2023-01-19T12:44:26.255Z,66.81
2023-01-19T12:47:21.369Z,69.97
2023-01-19T12:49:56.984Z,69.95
2023-01-19T12:52:36.171Z,69.25
2023-01-19T12:55:15.622Z,67.61
2023-01-19T12:57:58.449Z,66.91
2023-01-19T13:00:31.322Z,66.13
2023-01-19T13:03:06.445Z,66.19
2023-01-19T13:05:43.074Z,66.34
2023-01-19T13:08:13.712Z,66.47
2023-01-19T13:11:04.096Z,65.47
2023-01-19T13:13:51.624Z,66.34
2023-01-19T13:16:23.532Z,69.57
2023-01-19T13:18:55.266Z,69.11
2023-01-19T13:21:34.476Z,67.08
2023-01-19T13:24:08.269Z,65.31
2023-01-19T13:26:55.611Z,63.60
2023-01-19T13:29:41.729Z,64.11
2023-01-19T13:32:22.568Z,67.64
2023-01-19T13:35:02.875Z,67.15
2023-01-19T13:37:52.257Z,67.27
2023-01-19T13:40:33.169Z,64.51
2023-01-19T13:43:04.332Z,63.94
2023-01-19T13:45:39.175Z,60.26
2023-01-19T13:48:19.225Z,60.85
2023-01-19T13:51:17.689Z,64.76
2023-01-19T13:53:59.314Z,65.09
2023-01-19T13:56:30.770Z,66.61
2023-01-19T13:59:11.680Z,65.86
2023-01-19T14:01:45.038Z,65.37
2023-01-19T14:04:37.400Z,65.32
2023-01-19T14:07:27.467Z,64.67
2023-01-19T14:10:12.569Z,63.33
2023-01-19T14:12:58.206Z,62.93
2023-01-19T14:15:30.940Z,63.38
2023-01-19T14:18:32.588Z,63.81
2023-01-19T14:21:12.372Z,65.03
2023-01-19T14:23:45.678Z,63.71
2023-01-19T14:26:42.856Z,64.13
2023-01-19T14:29:32.937Z,64.04
2023-01-19T14:32:28.837Z,65.02
2023-01-19T14:35:05.859Z,65.91
2023-01-19T14:37:38.644Z,62.77
2023-01-19T14:40:16.625Z,66.10
2023-01-19T14:42:54.284Z,67.71
2023-01-19T14:45:37.859Z,66.30
2023-01-19T14:48:23.761Z,63.76
2023-01-19T14:51:03.847Z,64.32
2023-01-19T14:53:40.553Z,63.56
2023-01-19T14:56:17.680Z,62.95
2023-01-19T14:58:49.379Z,61.96
2023-01-19T15:01:20.474Z,61.36
2023-01-19T15:03:50.569Z,62.22
2023-01-19T15:06:23.405Z,61.36
2023-01-19T15:08:57.247Z,60.13
2023-01-19T15:11:36.321Z,60.69
2023-01-19T15:14:07.032Z,59.93
2023-01-19T15:16:39.694Z,59.65
2023-01-19T15:19:18.163Z,59.94
2023-01-19T15:21:48.586Z,60.58
2023-01-19T15:24:19.016Z,60.72
2023-01-19T15:26:50.852Z,60.06
2023-01-19T15:29:28.179Z,61.45
2023-01-19T15:31:58.569Z,59.88
2023-01-19T15:34:28.838Z,58.40
2023-01-19T15:37:01.251Z,58.31
2023-01-19T15:39:31.667Z,57.50
2023-01-19T15:42:02.830Z,56.93
2023-01-19T15:44:33.378Z,55.66
2023-01-19T15:47:03.962Z,58.13
2023-01-19T15:49:34.537Z,58.16
2023-01-19T15:52:04.266Z,58.29
2023-01-19T15:54:35.537Z,56.96
2023-01-19T15:57:08.008Z,56.74
2023-01-19T15:59:39.930Z,57.51
2023-01-19T16:02:11.726Z,58.13
2023-01-19T16:04:41.851Z,55.86
2023-01-19T16:07:11.677Z,55.18
2023-01-19T16:09:41.933Z,53.91
2023-01-19T16:12:12.069Z,54.75
2023-01-19T16:14:44.323Z,59.69
2023-01-19T16:17:14.633Z,59.16
2023-01-19T16:19:44.580Z,60.87
2023-01-19T16:22:15.993Z,61.50
2023-01-19T16:24:48.353Z,57.24
2023-01-19T16:27:18.587Z,54.50
2023-01-19T16:29:50.026Z,55.38
2023-01-19T16:32:22.706Z,58.37
2023-01-19T16:34:58.567Z,57.99
2023-01-19T16:37:28.870Z,61.22
2023-01-19T16:39:59.104Z,61.69
2023-01-19T16:42:30.383Z,59.04
2023-01-19T16:45:01.861Z,58.07
2023-01-19T16:47:32.323Z,57.73
2023-01-19T16:50:02.372Z,57.52
2023-01-19T16:52:32.652Z,55.94
2023-01-19T16:55:03.997Z,54.92
2023-01-19T16:57:34.694Z,55.01
2023-01-19T17:00:06.336Z,54.75
2023-01-19T17:02:37.426Z,58.32
2023-01-19T17:05:08.296Z,60.18
2023-01-19T17:07:39.263Z,62.97
2023-01-19T17:10:13.415Z,62.30
2023-01-19T17:12:44.114Z,63.20
2023-01-19T17:15:14.571Z,63.74
2023-01-19T17:17:46.088Z,63.94
2023-01-19T17:20:16.097Z,64.54
2023-01-19T17:22:45.822Z,61.10
2023-01-19T17:25:17.567Z,60.73
2023-01-19T17:27:48.114Z,58.78
2023-01-19T17:30:18.840Z,58.27
2023-01-19T17:32:49.120Z,57.40
2023-01-19T17:35:18.909Z,59.11
2023-01-19T17:37:51.269Z,62.31
2023-01-19T17:40:22.055Z,62.15
2023-01-19T17:42:54.168Z,60.13
2023-01-19T17:45:25.015Z,56.54
2023-01-19T17:47:55.906Z,57.21
2023-01-19T17:50:26.307Z,57.28
2023-01-19T17:52:57.418Z,57.44
2023-01-19T17:55:27.648Z,57.59
2023-01-19T17:58:00.333Z,58.05
2023-01-19T18:00:31.793Z,59.25
2023-01-19T18:03:02.574Z,60.24
2023-01-19T18:05:32.911Z,60.81
2023-01-19T18:08:03.255Z,62.70
2023-01-19T18:10:35.371Z,62.26
2023-01-19T18:13:06.870Z,62.52
2023-01-19T18:15:37.318Z,63.72
2023-01-19T18:18:07.090Z,62.45
2023-01-19T18:20:41.701Z,60.12
2023-01-19T18:23:14.204Z,60.48
2023-01-19T18:25:45.203Z,60.22
2023-01-19T18:28:15.758Z,60.83
2023-01-19T18:30:46.273Z,59.31
2023-01-19T18:33:16.496Z,58.93
2023-01-19T18:35:47.786Z,58.58
2023-01-19T18:38:19.373Z,57.70
2023-01-19T18:40:49.842Z,57.53
2023-01-19T18:43:19.555Z,56.48
2023-01-19T18:45:51.418Z,57.97
2023-01-19T18:48:22.640Z,58.69
2023-01-19T18:50:53.552Z,60.02
2023-01-19T18:53:23.716Z,61.33
2023-01-19T18:55:59.196Z,62.38
2023-01-19T18:58:30.357Z,61.61
2023-01-19T19:01:02.589Z,60.81
2023-01-19T19:03:32.965Z,60.89
2023-01-19T19:06:06.563Z,61.42
2023-01-19T19:08:37.297Z,60.49
2023-01-19T19:11:12.705Z,62.84
2023-01-19T19:13:44.098Z,61.10
2023-01-19T19:16:14.948Z,60.74
2023-01-19T19:18:45.898Z,60.78
2023-01-19T19:21:19.872Z,61.98
2023-01-19T19:23:56.064Z,62.38
2023-01-19T19:26:29.156Z,62.81
2023-01-19T19:29:00.228Z,63.93
2023-01-19T19:31:31.474Z,64.15
2023-01-19T19:34:01.791Z,63.83
2023-01-19T19:36:33.718Z,64.88
2023-01-19T19:39:04.696Z,65.23
2023-01-19T19:41:36.465Z,65.91
2023-01-19T19:44:07.073Z,67.22
2023-01-19T19:46:38.421Z,66.63
2023-01-19T19:49:09.276Z,67.19
2023-01-19T19:51:40.743Z,68.19
2023-01-19T19:54:11.209Z,70.25
2023-01-19T19:56:41.861Z,70.78
2023-01-19T19:59:12.876Z,70.78
2023-01-19T20:01:45.015Z,71.13
2023-01-19T20:04:16.333Z,70.11
2023-01-19T20:06:46.325Z,69.84
2023-01-19T20:09:18.059Z,70.16
2023-01-19T20:11:50.193Z,69.65
2023-01-19T20:14:28.069Z,70.00
2023-01-19T20:16:58.237Z,70.50
2023-01-19T20:19:30.151Z,71.18
2023-01-19T20:22:02.395Z,71.33
2023-01-19T20:24:33.109Z,71.85
2023-01-19T20:27:03.282Z,71.34
2023-01-19T20:29:33.125Z,71.72
2023-01-19T20:32:03.872Z,72.13
2023-01-19T20:34:36.696Z,72.57
2023-01-19T20:37:07.653Z,73.18
2023-01-19T20:39:38.823Z,73.50
2023-01-19T20:42:12.535Z,74.52
2023-01-19T20:44:43.972Z,75.33
2023-01-19T20:47:16.620Z,75.31
2023-01-19T20:49:46.819Z,75.11
2023-01-19T20:52:16.847Z,75.38
2023-01-19T20:54:48.012Z,75.64
2023-01-19T20:57:19.476Z,75.42
2023-01-19T20:59:49.910Z,75.31
2023-01-19T21:02:19.926Z,75.75
2023-01-19T21:04:50.454Z,75.90
2023-01-19T21:07:21.278Z,76.26
2023-01-19T21:09:52.634Z,76.31
2023-01-19T21:12:24.062Z,76.50
2023-01-19T21:14:54.410Z,77.25
2023-01-19T21:17:25.205Z,76.87
2023-01-19T21:19:55.840Z,76.94
2023-01-19T21:22:25.624Z,77.50
2023-01-19T21:24:55.555Z,77.59
2023-01-19T21:27:25.867Z,77.61
2023-01-19T21:29:56.713Z,78.61
2023-01-19T21:32:27.095Z,78.66
2023-01-19T21:34:59.294Z,78.31
2023-01-19T21:37:32.807Z,78.03
2023-01-19T21:40:03.659Z,78.55
2023-01-19T21:42:44.642Z,78.52
2023-01-19T21:45:15.310Z,78.80
2023-01-19T21:47:45.370Z,78.72
2023-01-19T21:50:16.375Z,79.00
2023-01-19T21:52:46.738Z,79.43
2023-01-19T21:55:17.304Z,79.73
2023-01-19T21:57:47.088Z,79.93
2023-01-19T22:00:17.423Z,79.71
2023-01-19T22:03:02.386Z,80.15
2023-01-19T22:05:37.506Z,79.97
2023-01-19T22:08:08.528Z,80.25
2023-01-19T22:10:39.381Z,80.53
2023-01-19T22:13:09.172Z,80.79
2023-01-19T22:15:39.669Z,80.96
2023-01-19T22:18:10.683Z,81.33
2023-01-19T22:20:41.214Z,81.57
2023-01-19T22:23:11.784Z,81.94
2023-01-19T22:25:42.688Z,81.78
2023-01-19T22:28:14.161Z,82.06
2023-01-19T22:30:45.101Z,82.17
2023-01-19T22:33:21.325Z,82.64
2023-01-19T22:35:52.336Z,83.04
2023-01-19T22:38:25.228Z,83.54
2023-01-19T22:40:59.085Z,83.72
2023-01-19T22:43:31.375Z,84.14
2023-01-19T22:46:06.628Z,84.30
2023-01-19T22:48:39.433Z,84.41
2023-01-19T22:51:10.737Z,84.60
2023-01-19T22:53:41.606Z,84.62
2023-01-19T22:56:24.359Z,84.69
2023-01-19T22:58:55.871Z,85.01
2023-01-19T23:01:29.374Z,85.03
2023-01-19T23:04:00.200Z,84.95
2023-01-19T23:06:33.351Z,84.88
2023-01-19T23:09:07.887Z,85.05
2023-01-19T23:11:41.766Z,85.25
2023-01-19T23:14:18.149Z,85.45
2023-01-19T23:16:48.693Z,85.56
2023-01-19T23:19:20.510Z,85.62
2023-01-19T23:21:54.047Z,85.67
2023-01-19T23:24:24.912Z,85.83
2023-01-19T23:26:55.531Z,86.13
2023-01-19T23:29:27.174Z,86.36
2023-01-19T23:31:58.122Z,86.48
2023-01-19T23:34:28.355Z,86.56
2023-01-19T23:36:58.776Z,86.75
2023-01-19T23:39:30.036Z,86.84
2023-01-19T23:42:00.007Z,87.07
2023-01-19T23:44:29.735Z,87.23
2023-01-19T23:46:59.887Z,87.46
2023-01-19T23:49:30.107Z,87.57
2023-01-19T23:52:01.838Z,87.61
2023-01-19T23:54:32.571Z,87.62
2023-01-19T23:57:02.882Z,87.60
2023-01-19T23:59:34.665Z,87.69
